• Join FlightAware (Why Join?)
  • Login
  • US Flag 
10:11AM EDT


 

Airport Tracker/Info


-or-


 

Live Flight TrackerFlight Track Log ✈ GJS3618 ✈ 13-Apr-2013 ✈ KDEN - CYYZ

Flight Track Log - Related Links

Times and Time Zones

All times are in EDT time to prevent confusion due to time zone crossing. See the GJS3618 flight status page for this flight to view local times or setup timezone preferences in your user account.

Time Position Orientation Groundspeed Altitude Reporting Facility
EDT Latitude Longitude Course Direction KTS MPH feet Rate Location/Type
12:33PM 39.8333 -104.5833 77° East 231 266 7,300  Level Denver TRACON
12:34PM 39.8667 -104.5000 62° Northeast 275 316 9,500 2,100 Climbing Denver TRACON
12:35PM 39.9366 -104.1806 73° East  Level FlightAware Approximate
12:35PM 39.8833 -104.4167 75° East 289 333 11,400  Level Denver TRACON
12:36PM 39.9667 -104.0194 90° East  Level FlightAware Approximate
12:36PM 39.8953 -104.3728 70° East 295 339 11,900  Level Denver Center
12:37PM 39.9941 -103.8583 79° East  Level FlightAware Approximate
12:37PM 39.9231 -104.2417 75° East 351 404 13,300  Level Denver Center
12:38PM 40.0266 -103.6976 79° East  Level FlightAware Approximate
12:38PM 39.9492 -104.1156 75° East 360 414 15,800  Level Denver Center
12:39PM 40.0500 -103.5333 77° East  Level FlightAware Approximate
12:39PM 39.9761 -103.9864 75° East 369 425 17,200  Level Denver Center
12:40PM 40.0067 -103.8369 75° East 397 457 19,000 1,560 Climbing Denver Center
12:41PM 40.0328 -103.7028 76° East 387 445 20,500 1,320 Climbing Denver Center
12:42PM 40.0572 -103.5569 78° East 406 467 21,800 1,140 Climbing Denver Center
12:43PM 40.0814 -103.4025 78° East 427 491 22,900 1,140 Climbing Denver Center
12:44PM 40.1117 -103.2178 78° East 441 507 24,200 1,140 Climbing Denver Center
12:45PM 40.1369 -103.0556 78° East 451 519 25,300 1,020 Climbing Denver Center
12:46PM 40.1633 -102.8931 78° East 453 521 26,400 960 Climbing Denver Center
12:47PM 40.1892 -102.7258 79° East 463 533 27,400 900 Climbing Denver Center
12:48PM 40.2156 -102.5467 79° East 471 542 28,300 840 Climbing Denver Center
12:49PM 40.2417 -102.3856 78° East 473 544 29,200 900 Climbing Denver Center
12:50PM 40.2697 -102.1947 79° East 479 551 30,200 900 Climbing Denver Center
12:51PM 40.2944 -102.0308 79° East 480 552 31,100 960 Climbing Denver Center
12:52PM 40.3233 -101.8403 79° East 478 550 32,300 1,080 Climbing Denver Center
12:53PM 40.3464 -101.6792 79° East 473 544 33,400 1,080 Climbing Denver Center
12:54PM 40.3725 -101.4928 80° East 467 537 34,600 720 Climbing Denver Center
12:55PM 40.4011 -101.3375 76° East 461 531 35,000 180 Climbing Denver Center
12:56PM 40.4406 -101.1519 74° East 473 544 35,000  Level Denver Center
12:57PM 40.4722 -100.9925 75° East 474 545 35,000  Level Denver Center
12:58PM 40.5097 -100.8050 75° East 478 550 35,000  Level Denver Center
12:59PM 40.5433 -100.6456 74° East 477 549 35,000  Level Denver Center
01:00PM 40.5803 -100.4586 75° East 479 551 35,000  Level Denver Center
01:01PM 40.6125 -100.2975 75° East 479 551 35,000  Level Denver Center
01:03PM 40.6500 -100.1086 75° East 481 554 35,000  Level Denver Center
01:04PM 40.6811 -99.9444 76° East 483 556 35,000  Level Denver Center
01:05PM 40.7236 -99.7267 75° East 485 558 35,000  Level Denver Center
01:06PM 40.7558 -99.5539 76° East 487 560 35,000  Level Denver Center
01:07PM 40.7892 -99.3819 76° East 486 559 35,000  Level Denver Center
01:08PM 40.8208 -99.2083 76° East 488 562 35,000  Level Denver Center
01:09PM 40.8569 -99.0200 76° East 487 560 35,000  Level Minneapolis Center
01:10PM 40.8881 -98.8481 76° East 484 557 35,000  Level Minneapolis Center
01:11PM 40.9192 -98.6767 76° East 481 554 35,000  Level Minneapolis Center
01:12PM 40.9556 -98.4717 77° East 478 550 35,000  Level Minneapolis Center
01:13PM 40.9886 -98.2947 76° East 474 545 35,000  Level Minneapolis Center
01:14PM 41.0250 -98.1281 74° East 472 543 35,000  Level Minneapolis Center
01:15PM 41.0619 -97.9614 74° East 473 544 35,000  Level Minneapolis Center
01:16PM 41.0997 -97.7919 73° East 478 550 35,000  Level Minneapolis Center
01:17PM 41.1372 -97.6200 74° East 485 558 35,000  Level Minneapolis Center
01:18PM 41.1753 -97.4461 74° East 489 563 35,000  Level Minneapolis Center
01:19PM 41.2192 -97.2442 74° East 491 565 35,000  Level Minneapolis Center
01:20PM 41.2558 -97.0667 75° East 496 571 35,000  Level Minneapolis Center
01:21PM 41.2928 -96.8903 74° East 497 572 35,000  Level Minneapolis Center
01:22PM 41.3300 -96.7147 74° East 494 568 35,000  Level Minneapolis Center
01:23PM 41.3664 -96.5394 74° East 492 566 35,000  Level Minneapolis Center
01:25PM 41.4028 -96.3656 74° East 486 559 35,000  Level Minneapolis Center
01:26PM 41.4461 -96.1447 75° East 498 573 35,000  Level Minneapolis Center
01:27PM 41.4814 -95.9692 75° East 492 566 35,000  Level Minneapolis Center
01:28PM 41.5183 -95.7897 75° East 498 573 35,000  Level Minneapolis Center
01:29PM 41.5547 -95.6047 75° East 499 574 35,000  Level Minneapolis Center
01:30PM 41.5889 -95.4256 76° East 498 573 35,000  Level Minneapolis Center
01:31PM 41.6322 -95.2072 75° East 506 582 35,000  Level Minneapolis Center
01:32PM 41.6675 -95.0261 75° East 504 580 35,000  Level Minneapolis Center
01:33PM 41.7011 -94.8428 76° East 506 582 35,000  Level Minneapolis Center
01:34PM 41.7347 -94.6617 76° East 503 579 35,000  Level Minneapolis Center
01:35PM 41.7700 -94.4806 75° East 502 578 35,000  Level Minneapolis Center
01:36PM 41.8039 -94.2997 76° East 498 573 35,000  Level Minneapolis Center
01:37PM 41.8361 -94.1194 76° East 498 573 35,000  Level Minneapolis Center
01:38PM 41.8683 -93.9381 77° East 499 574 35,000  Level Minneapolis Center
01:39PM 41.9086 -93.7200 76° East 500 575 35,000  Level Minneapolis Center
01:40PM 41.9406 -93.5397 77° East 500 575 35,000  Level Minneapolis Center
01:41PM 41.9739 -93.3553 76° East 497 572 35,000  Level Minneapolis Center
01:42PM 42.0067 -93.1767 76° East 497 572 35,000  Level Minneapolis Center
01:43PM 42.0356 -92.9944 78° East 501 577 35,000  Level Minneapolis Center
01:44PM 42.0658 -92.8144 77° East 498 573 35,000  Level Minneapolis Center
01:45PM 42.0972 -92.6336 77° East 500 575 35,000  Level Minneapolis Center
01:46PM 42.1158 -92.5236 77° East 499 574 35,000  Level Chicago Center
01:46PM 42.1344 -92.4178 77° East 499 574 35,000  Level Minneapolis Center
01:47PM 42.1647 -92.2381 77° East 499 574 35,000  Level Minneapolis Center
01:48PM 42.1964 -92.0586 77° East 499 574 35,000 60 Level Minneapolis Center
01:49PM 42.2097 -91.9853 76° East 499 574 35,100 480 Climbing Chicago Center
01:50PM 42.2408 -91.8047 77° East 500 575 35,800 600 Climbing Chicago Center
01:51PM 42.2783 -91.5861 77° East 505 581 36,400 480 Climbing Chicago Center
01:52PM 42.3094 -91.4014 77° East 513 590 36,900 240 Climbing Chicago Center
01:53PM 42.3392 -91.2194 77° East 506 582 37,000  Climbing Chicago Center
01:54PM 42.3697 -91.0333 77° East 512 589 37,000  Level Chicago Center
01:55PM 42.3989 -90.8481 78° East 511 588 37,000  Level Chicago Center
01:56PM 42.4356 -90.6256 77° East 510 587 37,000  Level Chicago Center
01:57PM 42.4639 -90.4392 78° East 510 587 37,000  Level Chicago Center
01:58PM 42.4931 -90.2542 78° East 509 586 37,000  Level Chicago Center
01:59PM 42.5203 -90.0669 79° East 511 588 37,000  Level Chicago Center
02:00PM 42.5519 -89.8736 77° East 514 592 37,000  Level Chicago Center
02:01PM 42.5856 -89.6556 78° East 509 586 37,000  Level Chicago Center
02:02PM 42.6131 -89.4650 79° East 515 593 37,000  Level Chicago Center
02:03PM 42.6414 -89.2756 78° East 514 592 37,000  Level Chicago Center
02:04PM 42.6686 -89.0861 79° East 513 590 37,000  Level Chicago Center
02:05PM 42.6969 -88.8975 78° East 512 589 37,000  Level Chicago Center
02:06PM 42.7228 -88.7083 79° East 512 589 37,000  Level Chicago Center
02:07PM 42.7547 -88.4875 79° East 514 592 37,000  Level Chicago Center
02:08PM 42.7808 -88.2989 79° East 510 587 37,000  Level Chicago Center
02:09PM 42.8061 -88.1092 80° East 512 589 37,000  Level Chicago Center
02:10PM 42.8322 -87.9200 79° East 511 588 37,000  Level Chicago Center
02:11PM 42.8572 -87.7317 80° East 508 585 37,000  Level Chicago Center
02:12PM 42.8819 -87.5439 80° East 506 582 37,000  Level Chicago Center
02:13PM 42.9086 -87.3419 80° East 504 580 37,000  Level Chicago Center
02:14PM 42.9322 -87.1542 80° East 502 578 37,000  Level Chicago Center
02:15PM 42.9575 -86.9681 79° East 502 578 37,000  Level Chicago Center
02:16PM 42.9800 -86.7814 81° East 500 575 37,000  Level Chicago Center
02:17PM 43.0025 -86.5953 81° East 499 574 37,000  Level Chicago Center
02:18PM 43.0300 -86.3711 80° East 499 574 37,000  Level Chicago Center
02:20PM 43.0522 -86.1847 81° East 498 573 37,000  Level Chicago Center
02:21PM 43.0739 -85.9867 81° East 498 573 37,000  Level Chicago Center
02:22PM 43.0969 -85.7906 81° East 504 580 37,000  Level Chicago Center
02:23PM 43.1189 -85.6000 81° East 508 585 37,000  Level Chicago Center
02:24PM 43.1403 -85.4094 81° East 508 585 37,000  Level Chicago Center
02:25PM 43.1594 -85.2086 82° East 511 588 37,000  Level Cleveland Center
02:26PM 43.1817 -85.0167 81° East 511 588 37,000  Level Cleveland Center
02:27PM 43.1994 -84.8242 83° East 511 588 37,000 -480 Level Cleveland Center
02:28PM 43.2144 -84.6314 84° East 511 588 36,100 -960 Descending Cleveland Center
02:29PM 43.2314 -84.4417 83° East 511 588 35,100 -1,020 Descending Cleveland Center
02:30PM 43.2439 -84.2486 85° East 506 582 34,100 -1,020 Descending Cleveland Center
02:31PM 43.2581 -84.0611 84° East 501 577 33,100 -1,080 Descending Cleveland Center
02:32PM 43.2706 -83.8508 85° East 496 571 32,000 -960 Descending Cleveland Center
02:33PM 43.2814 -83.6831 85° East 496 571 31,200 -900 Descending Cleveland Center
02:34PM 43.2947 -83.4925 84° East 496 571 30,200 -1,020 Descending Cleveland Center
02:35PM 43.3078 -83.2964 85° East 501 577 29,200 -600 Descending Cleveland Center
02:36PM 43.3203 -83.1086 85° East 501 577 29,000 -120 Descending Cleveland Center
02:37PM 43.3328 -82.9206 85° East 496 571 29,000  Level Cleveland Center
02:38PM 43.3425 -82.7325 86° East 496 571 29,000  Level Cleveland Center
02:39PM 43.3500 -82.5167 87° East 500 575 29,000  Level Toronto Center
02:40PM 43.3500 -82.3333 90° East 490 564 29,000  Level Toronto Center
02:41PM 43.3667 -82.1500 83° East 490 564 29,000  Level Toronto Center
02:42PM 43.3667 -81.9500 90° East 500 575 29,000 -600 Level Toronto Center
02:43PM 43.3833 -81.7833 82° East 460 529 27,800 -1,500 Descending Toronto Center
02:44PM 43.4000 -81.6333 81° East 430 495 26,000 -1,560 Descending Toronto Center
02:45PM 43.4000 -81.4667 90° East 410 472 24,700 -1,320 Descending Toronto Center
02:46PM 43.4000 -81.3000 90° East 400 460 23,400 -1,260 Descending Toronto Center
02:47PM 43.4167 -81.1667 80° East 390 449 22,200 -1,200 Descending Toronto Center
02:48PM 43.4167 -81.0333 90° East 390 449 21,100 -1,200 Descending Toronto Center
02:49PM 43.4167 -80.8667 90° East 380 437 19,800 -1,200 Descending Toronto Center
02:50PM 43.4333 -80.7333 80° East 380 437 18,700 -1,260 Descending Toronto Center
02:51PM 43.4500 -80.6000 80° East 370 426 17,300 -1,260 Descending Toronto Center
02:52PM 43.4500 -80.4667 90° East 370 426 16,200 -1,200 Descending Toronto Center
02:53PM 43.4667 -80.3167 81° East 360 414 15,000 -1,260 Descending Toronto Center
02:54PM 43.5000 -80.1833 71° East 360 414 13,700 -1,200 Descending Toronto Center
02:55PM 43.5333 -80.0667 68° East 360 414 12,600 -1,200 Descending Toronto Center
02:56PM 43.5667 -79.9333 71° East 350 403 11,300 -840 Descending Toronto Center
02:57PM 43.5833 -79.8167 79° East 340 391 11,000 -540 Descending Toronto Center
02:58PM 43.5833 -79.6833 90° East 330 380 10,300 -1,020 Descending Toronto Center
02:59PM 43.5833 -79.5667 90° East 320 368 9,000 -1,200 Descending Toronto Center
03:00PM 43.6333 -79.4667 55° Northeast 290 334 8,000 -1,620 Descending Toronto Center
03:01PM 43.6667 -79.4000 55° Northeast 260 299 5,800 -1,500 Descending Toronto Center
03:02PM 43.7167 -79.3333 44° Northeast 240 276 5,000 -420 Descending Toronto Center
03:03PM 43.7667 -79.2667 44° Northeast 230 265 5,000  Level Toronto Center
03:04PM 43.8167 -79.2000 44° Northeast 240 276 5,000  Level Toronto Center
03:05PM 43.8500 -79.1500 47° Northeast 230 265 5,000  Level Toronto Center
03:06PM 43.9000 -79.1667 346° North 180 207 5,000 -480 Level Toronto Center
03:07PM 43.9000 -79.2333 270° West 160 184 4,100 -540 Descending Toronto Center
03:08PM 43.8667 -79.2833 227° Southwest 160 184 4,000 -60 Descending Toronto Center
03:09PM 43.8333 -79.3333 227° Southwest 170 196 4,000  Level Toronto Center
03:10PM 43.8000 -79.3833 227° Southwest 170 196 4,000 -120 Level Toronto Center
03:11PM 43.7667 -79.4333 227° Southwest 170 196 3,800 -600 Descending Toronto Center
03:12PM 43.7333 -79.4667 216° Southwest 160 184 2,900 -900 Descending Toronto Center